sensor_id;sensor_type;location;lat;lon;timestamp;temperature;humidity
74809;DHT22;63338;39.544;2.596;2022-12-29T00:00:14;11.90;94.70
74809;DHT22;63338;39.544;2.596;2022-12-29T00:02:40;11.90;94.30
74809;DHT22;63338;39.544;2.596;2022-12-29T00:05:07;11.80;94.10
74809;DHT22;63338;39.544;2.596;2022-12-29T00:07:33;11.70;93.90
74809;DHT22;63338;39.544;2.596;2022-12-29T00:09:59;11.70;94.10
74809;DHT22;63338;39.544;2.596;2022-12-29T00:12:25;11.60;94.00
74809;DHT22;63338;39.544;2.596;2022-12-29T00:15:11;11.70;93.80
74809;DHT22;63338;39.544;2.596;2022-12-29T00:17:55;11.60;93.80
74809;DHT22;63338;39.544;2.596;2022-12-29T00:20:21;11.50;94.10
74809;DHT22;63338;39.544;2.596;2022-12-29T00:23:07;11.60;94.20
74809;DHT22;63338;39.544;2.596;2022-12-29T00:25:52;11.60;94.30
74809;DHT22;63338;39.544;2.596;2022-12-29T00:28:37;11.50;94.30
74809;DHT22;63338;39.544;2.596;2022-12-29T00:31:21;11.40;94.40
74809;DHT22;63338;39.544;2.596;2022-12-29T00:34:09;11.50;94.80
74809;DHT22;63338;39.544;2.596;2022-12-29T00:36:54;11.40;94.90
74809;DHT22;63338;39.544;2.596;2022-12-29T00:39:21;11.50;94.50
74809;DHT22;63338;39.544;2.596;2022-12-29T00:42:07;11.40;94.50
74809;DHT22;63338;39.544;2.596;2022-12-29T00:44:52;11.30;94.50
74809;DHT22;63338;39.544;2.596;2022-12-29T00:47:18;11.30;94.20
74809;DHT22;63338;39.544;2.596;2022-12-29T00:49:44;11.30;94.10
74809;DHT22;63338;39.544;2.596;2022-12-29T00:52:13;11.20;94.30
74809;DHT22;63338;39.544;2.596;2022-12-29T00:54:40;11.30;93.90
74809;DHT22;63338;39.544;2.596;2022-12-29T00:57:08;11.10;94.30
74809;DHT22;63338;39.544;2.596;2022-12-29T00:59:36;11.10;94.40
74809;DHT22;63338;39.544;2.596;2022-12-29T01:02:03;11.20;94.50
74809;DHT22;63338;39.544;2.596;2022-12-29T01:04:29;11.10;94.40
74809;DHT22;63338;39.544;2.596;2022-12-29T01:06:55;11.20;94.70
74809;DHT22;63338;39.544;2.596;2022-12-29T01:09:21;11.10;94.90
74809;DHT22;63338;39.544;2.596;2022-12-29T01:12:09;11.20;95.20
74809;DHT22;63338;39.544;2.596;2022-12-29T01:14:36;11.10;95.20
74809;DHT22;63338;39.544;2.596;2022-12-29T01:17:02;11.20;95.20
74809;DHT22;63338;39.544;2.596;2022-12-29T01:19:28;11.30;95.30
74809;DHT22;63338;39.544;2.596;2022-12-29T01:21:54;11.30;95.30
74809;DHT22;63338;39.544;2.596;2022-12-29T01:24:20;11.20;95.10
74809;DHT22;63338;39.544;2.596;2022-12-29T01:26:47;11.30;95.20
74809;DHT22;63338;39.544;2.596;2022-12-29T01:29:14;11.40;95.20
74809;DHT22;63338;39.544;2.596;2022-12-29T01:31:40;11.30;94.90
74809;DHT22;63338;39.544;2.596;2022-12-29T01:34:06;11.30;94.90
74809;DHT22;63338;39.544;2.596;2022-12-29T01:36:33;11.30;94.80
74809;DHT22;63338;39.544;2.596;2022-12-29T01:39:02;11.30;94.90
74809;DHT22;63338;39.544;2.596;2022-12-29T01:41:29;11.30;95.00
74809;DHT22;63338;39.544;2.596;2022-12-29T01:43:57;11.30;95.10
74809;DHT22;63338;39.544;2.596;2022-12-29T01:46:42;11.30;95.00
74809;DHT22;63338;39.544;2.596;2022-12-29T01:49:15;11.30;94.50
74809;DHT22;63338;39.544;2.596;2022-12-29T01:51:55;11.20;94.60
74809;DHT22;63338;39.544;2.596;2022-12-29T01:54:38;11.10;94.50
74809;DHT22;63338;39.544;2.596;2022-12-29T01:57:10;11.20;94.90
74809;DHT22;63338;39.544;2.596;2022-12-29T01:59:43;11.10;94.50
74809;DHT22;63338;39.544;2.596;2022-12-29T02:02:12;11.20;94.20
74809;DHT22;63338;39.544;2.596;2022-12-29T02:04:41;11.10;94.20
74809;DHT22;63338;39.544;2.596;2022-12-29T02:07:17;11.10;94.60
74809;DHT22;63338;39.544;2.596;2022-12-29T02:09:47;11.10;94.50
74809;DHT22;63338;39.544;2.596;2022-12-29T02:12:16;11.10;94.20
74809;DHT22;63338;39.544;2.596;2022-12-29T02:14:42;11.00;94.30
74809;DHT22;63338;39.544;2.596;2022-12-29T02:24:10;10.90;95.10
74809;DHT22;63338;39.544;2.596;2022-12-29T02:31:56;11.00;94.80
74809;DHT22;63338;39.544;2.596;2022-12-29T02:37:30;10.90;94.60
74809;DHT22;63338;39.544;2.596;2022-12-29T02:40:09;10.90;94.80
74809;DHT22;63338;39.544;2.596;2022-12-29T02:45:37;10.90;95.20
74809;DHT22;63338;39.544;2.596;2022-12-29T02:48:28;10.90;94.90
74809;DHT22;63338;39.544;2.596;2022-12-29T02:50:57;10.80;94.90
74809;DHT22;63338;39.544;2.596;2022-12-29T02:53:25;10.80;94.60
74809;DHT22;63338;39.544;2.596;2022-12-29T02:56:10;10.80;94.80
74809;DHT22;63338;39.544;2.596;2022-12-29T02:58:36;10.70;94.60
74809;DHT22;63338;39.544;2.596;2022-12-29T03:04:03;10.70;94.90
74809;DHT22;63338;39.544;2.596;2022-12-29T03:12:22;10.80;95.10
74809;DHT22;63338;39.544;2.596;2022-12-29T03:17:58;10.80;95.20
74809;DHT22;63338;39.544;2.596;2022-12-29T03:20:35;10.80;95.40
74809;DHT22;63338;39.544;2.596;2022-12-29T03:23:05;10.80;95.10
74809;DHT22;63338;39.544;2.596;2022-12-29T03:25:36;10.80;95.50
74809;DHT22;63338;39.544;2.596;2022-12-29T03:28:10;10.80;95.20
74809;DHT22;63338;39.544;2.596;2022-12-29T03:30:38;10.70;95.20
74809;DHT22;63338;39.544;2.596;2022-12-29T03:33:09;10.80;95.70
74809;DHT22;63338;39.544;2.596;2022-12-29T03:35:38;10.70;95.50
74809;DHT22;63338;39.544;2.596;2022-12-29T03:38:27;10.70;95.10
74809;DHT22;63338;39.544;2.596;2022-12-29T03:40:58;10.70;95.10
74809;DHT22;63338;39.544;2.596;2022-12-29T03:43:25;10.70;95.00
74809;DHT22;63338;39.544;2.596;2022-12-29T03:45:52;10.70;95.60
74809;DHT22;63338;39.544;2.596;2022-12-29T03:48:18;10.70;95.50
74809;DHT22;63338;39.544;2.596;2022-12-29T03:50:44;10.70;95.20
74809;DHT22;63338;39.544;2.596;2022-12-29T03:53:10;10.70;95.00
74809;DHT22;63338;39.544;2.596;2022-12-29T03:55:36;10.60;94.80
74809;DHT22;63338;39.544;2.596;2022-12-29T03:58:02;10.60;94.80
74809;DHT22;63338;39.544;2.596;2022-12-29T04:00:28;10.70;95.00
74809;DHT22;63338;39.544;2.596;2022-12-29T04:02:54;10.70;95.50
74809;DHT22;63338;39.544;2.596;2022-12-29T04:05:20;10.70;95.50
74809;DHT22;63338;39.544;2.596;2022-12-29T04:07:46;10.80;95.90
74809;DHT22;63338;39.544;2.596;2022-12-29T04:10:12;10.80;95.70
74809;DHT22;63338;39.544;2.596;2022-12-29T04:12:38;10.80;95.70
74809;DHT22;63338;39.544;2.596;2022-12-29T04:15:05;10.80;95.80
74809;DHT22;63338;39.544;2.596;2022-12-29T04:17:31;10.90;95.80
74809;DHT22;63338;39.544;2.596;2022-12-29T04:19:57;10.80;95.70
74809;DHT22;63338;39.544;2.596;2022-12-29T04:22:42;10.90;95.80
74809;DHT22;63338;39.544;2.596;2022-12-29T04:25:09;11.00;96.50
74809;DHT22;63338;39.544;2.596;2022-12-29T04:27:35;11.00;96.60
74809;DHT22;63338;39.544;2.596;2022-12-29T04:30:01;11.10;97.00
74809;DHT22;63338;39.544;2.596;2022-12-29T04:32:27;11.20;97.00
74809;DHT22;63338;39.544;2.596;2022-12-29T04:34:53;11.30;96.70
74809;DHT22;63338;39.544;2.596;2022-12-29T04:37:18;11.30;96.70
74809;DHT22;63338;39.544;2.596;2022-12-29T04:39:44;11.30;96.50
74809;DHT22;63338;39.544;2.596;2022-12-29T04:42:10;11.40;96.50
74809;DHT22;63338;39.544;2.596;2022-12-29T04:44:36;11.40;96.10
74809;DHT22;63338;39.544;2.596;2022-12-29T04:47:02;11.60;96.60
74809;DHT22;63338;39.544;2.596;2022-12-29T04:49:28;11.70;96.90
74809;DHT22;63338;39.544;2.596;2022-12-29T04:51:58;11.70;97.40
74809;DHT22;63338;39.544;2.596;2022-12-29T04:54:24;11.80;97.50
74809;DHT22;63338;39.544;2.596;2022-12-29T04:56:49;12.00;97.60
74809;DHT22;63338;39.544;2.596;2022-12-29T04:59:18;12.00;97.50
74809;DHT22;63338;39.544;2.596;2022-12-29T05:01:44;12.20;97.60
74809;DHT22;63338;39.544;2.596;2022-12-29T05:04:10;12.20;97.90
74809;DHT22;63338;39.544;2.596;2022-12-29T05:06:39;12.30;97.80
74809;DHT22;63338;39.544;2.596;2022-12-29T05:09:05;12.40;97.80
74809;DHT22;63338;39.544;2.596;2022-12-29T05:11:31;12.40;97.70
74809;DHT22;63338;39.544;2.596;2022-12-29T05:13:58;12.40;97.70
74809;DHT22;63338;39.544;2.596;2022-12-29T05:16:24;12.60;97.50
74809;DHT22;63338;39.544;2.596;2022-12-29T05:18:49;12.50;97.40
74809;DHT22;63338;39.544;2.596;2022-12-29T05:21:16;12.50;97.20
74809;DHT22;63338;39.544;2.596;2022-12-29T05:23:43;12.40;97.20
74809;DHT22;63338;39.544;2.596;2022-12-29T05:26:12;12.50;97.00
74809;DHT22;63338;39.544;2.596;2022-12-29T05:28:38;12.50;97.20
74809;DHT22;63338;39.544;2.596;2022-12-29T05:31:03;12.50;97.30
74809;DHT22;63338;39.544;2.596;2022-12-29T05:33:29;12.60;97.20
74809;DHT22;63338;39.544;2.596;2022-12-29T05:35:55;12.60;97.20
74809;DHT22;63338;39.544;2.596;2022-12-29T05:38:21;12.70;97.30
74809;DHT22;63338;39.544;2.596;2022-12-29T05:40:48;12.40;96.90
74809;DHT22;63338;39.544;2.596;2022-12-29T05:43:13;12.50;96.80
74809;DHT22;63338;39.544;2.596;2022-12-29T05:45:39;12.40;96.80
74809;DHT22;63338;39.544;2.596;2022-12-29T05:48:05;12.40;96.60
74809;DHT22;63338;39.544;2.596;2022-12-29T05:50:32;12.30;96.60
74809;DHT22;63338;39.544;2.596;2022-12-29T05:53:01;12.40;96.40
74809;DHT22;63338;39.544;2.596;2022-12-29T05:55:27;12.20;96.40
74809;DHT22;63338;39.544;2.596;2022-12-29T05:57:53;12.10;96.30
74809;DHT22;63338;39.544;2.596;2022-12-29T06:00:19;12.10;96.40
74809;DHT22;63338;39.544;2.596;2022-12-29T06:02:46;12.20;96.40
74809;DHT22;63338;39.544;2.596;2022-12-29T06:05:12;12.00;96.10
74809;DHT22;63338;39.544;2.596;2022-12-29T06:07:38;12.00;96.00
74809;DHT22;63338;39.544;2.596;2022-12-29T06:10:05;11.90;96.00
74809;DHT22;63338;39.544;2.596;2022-12-29T06:12:32;11.90;96.00
74809;DHT22;63338;39.544;2.596;2022-12-29T06:14:58;11.80;96.20
74809;DHT22;63338;39.544;2.596;2022-12-29T06:17:24;11.80;96.30
74809;DHT22;63338;39.544;2.596;2022-12-29T06:19:51;11.90;96.30
74809;DHT22;63338;39.544;2.596;2022-12-29T06:22:17;11.70;96.00
74809;DHT22;63338;39.544;2.596;2022-12-29T06:24:43;11.70;96.40
74809;DHT22;63338;39.544;2.596;2022-12-29T06:27:09;11.60;96.20
74809;DHT22;63338;39.544;2.596;2022-12-29T06:29:35;11.50;96.20
74809;DHT22;63338;39.544;2.596;2022-12-29T06:32:03;11.50;96.40
74809;DHT22;63338;39.544;2.596;2022-12-29T06:34:29;11.40;96.40
74809;DHT22;63338;39.544;2.596;2022-12-29T06:36:55;11.50;96.60
74809;DHT22;63338;39.544;2.596;2022-12-29T06:39:21;11.40;96.70
74809;DHT22;63338;39.544;2.596;2022-12-29T06:41:47;11.40;96.60
74809;DHT22;63338;39.544;2.596;2022-12-29T06:44:13;11.40;96.50
74809;DHT22;63338;39.544;2.596;2022-12-29T06:46:39;11.50;96.70
74809;DHT22;63338;39.544;2.596;2022-12-29T06:49:05;11.50;96.90
74809;DHT22;63338;39.544;2.596;2022-12-29T06:51:31;11.50;96.80
74809;DHT22;63338;39.544;2.596;2022-12-29T06:53:57;11.40;96.80
74809;DHT22;63338;39.544;2.596;2022-12-29T06:56:23;11.50;96.60
74809;DHT22;63338;39.544;2.596;2022-12-29T06:58:49;11.50;96.70
74809;DHT22;63338;39.544;2.596;2022-12-29T07:01:15;11.50;96.70
74809;DHT22;63338;39.544;2.596;2022-12-29T07:03:42;11.50;96.80
74809;DHT22;63338;39.544;2.596;2022-12-29T07:06:09;11.40;96.90
74809;DHT22;63338;39.544;2.596;2022-12-29T07:08:35;11.40;96.90
74809;DHT22;63338;39.544;2.596;2022-12-29T07:11:01;11.40;96.80
74809;DHT22;63338;39.544;2.596;2022-12-29T07:13:27;11.50;96.60
74809;DHT22;63338;39.544;2.596;2022-12-29T07:15:53;11.40;96.70
74809;DHT22;63338;39.544;2.596;2022-12-29T07:18:21;11.30;96.80
74809;DHT22;63338;39.544;2.596;2022-12-29T07:20:47;11.40;96.90
74809;DHT22;63338;39.544;2.596;2022-12-29T07:23:14;11.30;96.90
74809;DHT22;63338;39.544;2.596;2022-12-29T07:25:40;11.40;97.10
74809;DHT22;63338;39.544;2.596;2022-12-29T07:28:07;11.30;96.80
74809;DHT22;63338;39.544;2.596;2022-12-29T07:30:33;11.20;96.80
74809;DHT22;63338;39.544;2.596;2022-12-29T07:32:59;11.20;96.90
74809;DHT22;63338;39.544;2.596;2022-12-29T07:35:27;11.10;96.90
74809;DHT22;63338;39.544;2.596;2022-12-29T07:37:59;11.20;96.90
74809;DHT22;63338;39.544;2.596;2022-12-29T07:40:25;11.20;96.80
74809;DHT22;63338;39.544;2.596;2022-12-29T07:42:51;11.20;96.60
74809;DHT22;63338;39.544;2.596;2022-12-29T07:45:17;11.10;96.60
74809;DHT22;63338;39.544;2.596;2022-12-29T07:47:43;11.20;96.90
74809;DHT22;63338;39.544;2.596;2022-12-29T07:50:12;11.20;97.20
74809;DHT22;63338;39.544;2.596;2022-12-29T07:52:39;11.20;97.40
74809;DHT22;63338;39.544;2.596;2022-12-29T07:55:06;11.40;97.70
74809;DHT22;63338;39.544;2.596;2022-12-29T07:57:32;11.40;97.80
74809;DHT22;63338;39.544;2.596;2022-12-29T07:59:58;11.40;97.90
74809;DHT22;63338;39.544;2.596;2022-12-29T08:02:24;11.40;98.00
74809;DHT22;63338;39.544;2.596;2022-12-29T08:04:52;11.50;97.80
74809;DHT22;63338;39.544;2.596;2022-12-29T08:07:18;11.50;97.90
74809;DHT22;63338;39.544;2.596;2022-12-29T08:09:44;11.60;97.90
74809;DHT22;63338;39.544;2.596;2022-12-29T08:12:10;11.50;98.00
74809;DHT22;63338;39.544;2.596;2022-12-29T08:14:36;11.70;98.10
74809;DHT22;63338;39.544;2.596;2022-12-29T08:17:02;11.80;98.20
74809;DHT22;63338;39.544;2.596;2022-12-29T08:19:29;12.00;98.40
74809;DHT22;63338;39.544;2.596;2022-12-29T08:21:55;12.20;98.70
74809;DHT22;63338;39.544;2.596;2022-12-29T08:24:21;12.10;98.80
74809;DHT22;63338;39.544;2.596;2022-12-29T08:26:47;12.30;99.20
74809;DHT22;63338;39.544;2.596;2022-12-29T08:29:13;12.60;99.30
74809;DHT22;63338;39.544;2.596;2022-12-29T08:31:39;12.70;98.60
74809;DHT22;63338;39.544;2.596;2022-12-29T08:34:06;12.80;98.80
74809;DHT22;63338;39.544;2.596;2022-12-29T08:36:33;13.00;98.70
74809;DHT22;63338;39.544;2.596;2022-12-29T08:38:59;13.20;99.00
74809;DHT22;63338;39.544;2.596;2022-12-29T08:41:26;13.30;99.20
74809;DHT22;63338;39.544;2.596;2022-12-29T08:43:52;13.50;99.40
74809;DHT22;63338;39.544;2.596;2022-12-29T08:46:18;13.80;99.60
74809;DHT22;63338;39.544;2.596;2022-12-29T08:48:45;14.50;99.90
74809;DHT22;63338;39.544;2.596;2022-12-29T08:51:12;15.50;99.90
74809;DHT22;63338;39.544;2.596;2022-12-29T08:53:38;16.40;98.50
74809;DHT22;63338;39.544;2.596;2022-12-29T08:56:04;17.40;93.90
74809;DHT22;63338;39.544;2.596;2022-12-29T08:58:31;18.40;88.80
74809;DHT22;63338;39.544;2.596;2022-12-29T09:00:57;19.40;85.00
74809;DHT22;63338;39.544;2.596;2022-12-29T09:03:24;20.10;82.00
74809;DHT22;63338;39.544;2.596;2022-12-29T09:05:52;21.10;79.50
74809;DHT22;63338;39.544;2.596;2022-12-29T09:08:19;21.70;75.90
74809;DHT22;63338;39.544;2.596;2022-12-29T09:10:45;22.30;74.70
74809;DHT22;63338;39.544;2.596;2022-12-29T09:13:13;22.80;72.50
74809;DHT22;63338;39.544;2.596;2022-12-29T09:15:42;23.30;71.00
74809;DHT22;63338;39.544;2.596;2022-12-29T09:18:09;23.70;69.60
74809;DHT22;63338;39.544;2.596;2022-12-29T09:20:35;24.10;68.00
74809;DHT22;63338;39.544;2.596;2022-12-29T09:23:02;24.40;67.50
74809;DHT22;63338;39.544;2.596;2022-12-29T09:25:29;24.60;66.20
74809;DHT22;63338;39.544;2.596;2022-12-29T09:27:55;25.00;64.40
74809;DHT22;63338;39.544;2.596;2022-12-29T09:30:22;25.40;63.60
74809;DHT22;63338;39.544;2.596;2022-12-29T09:32:49;25.70;63.20
74809;DHT22;63338;39.544;2.596;2022-12-29T09:35:16;26.20;62.50
74809;DHT22;63338;39.544;2.596;2022-12-29T09:37:42;26.30;61.50
74809;DHT22;63338;39.544;2.596;2022-12-29T09:40:33;26.00;61.30
74809;DHT22;63338;39.544;2.596;2022-12-29T09:46:03;25.70;61.00
74809;DHT22;63338;39.544;2.596;2022-12-29T09:48:37;25.80;60.90
74809;DHT22;63338;39.544;2.596;2022-12-29T09:51:11;25.90;61.10
74809;DHT22;63338;39.544;2.596;2022-12-29T09:53:42;25.90;60.70
74809;DHT22;63338;39.544;2.596;2022-12-29T09:56:17;25.80;60.50
74809;DHT22;63338;39.544;2.596;2022-12-29T09:58:54;25.80;61.00
74809;DHT22;63338;39.544;2.596;2022-12-29T10:01:38;25.90;60.40
74809;DHT22;63338;39.544;2.596;2022-12-29T10:04:07;25.90;61.30
74809;DHT22;63338;39.544;2.596;2022-12-29T10:10:26;26.40;59.60
74809;DHT22;63338;39.544;2.596;2022-12-29T10:23:41;25.70;59.70
74809;DHT22;63338;39.544;2.596;2022-12-29T10:26:16;25.30;59.50
74809;DHT22;63338;39.544;2.596;2022-12-29T10:31:19;24.60;60.50
74809;DHT22;63338;39.544;2.596;2022-12-29T10:33:51;24.50;60.50
74809;DHT22;63338;39.544;2.596;2022-12-29T10:36:42;24.70;60.10
74809;DHT22;63338;39.544;2.596;2022-12-29T10:39:34;24.90;59.90
74809;DHT22;63338;39.544;2.596;2022-12-29T10:42:27;24.90;59.80
74809;DHT22;63338;39.544;2.596;2022-12-29T10:44:55;25.00;59.80
74809;DHT22;63338;39.544;2.596;2022-12-29T10:47:26;25.00;59.40
74809;DHT22;63338;39.544;2.596;2022-12-29T10:49:54;25.10;58.90
74809;DHT22;63338;39.544;2.596;2022-12-29T10:52:21;24.90;59.40
74809;DHT22;63338;39.544;2.596;2022-12-29T10:55:00;25.10;59.20
74809;DHT22;63338;39.544;2.596;2022-12-29T10:57:40;25.40;56.70
74809;DHT22;63338;39.544;2.596;2022-12-29T11:00:16;25.70;56.30
74809;DHT22;63338;39.544;2.596;2022-12-29T11:03:01;25.90;55.90
74809;DHT22;63338;39.544;2.596;2022-12-29T11:08:46;26.10;54.90
74809;DHT22;63338;39.544;2.596;2022-12-29T11:11:24;26.40;53.70
74809;DHT22;63338;39.544;2.596;2022-12-29T11:16:32;27.10;52.90
74809;DHT22;63338;39.544;2.596;2022-12-29T11:19:00;27.50;52.70
74809;DHT22;63338;39.544;2.596;2022-12-29T11:24:18;27.30;51.80
74809;DHT22;63338;39.544;2.596;2022-12-29T11:26:44;26.70;52.70
74809;DHT22;63338;39.544;2.596;2022-12-29T11:29:21;26.20;53.20
74809;DHT22;63338;39.544;2.596;2022-12-29T11:31:53;26.10;54.50
74809;DHT22;63338;39.544;2.596;2022-12-29T11:34:25;26.20;54.10
74809;DHT22;63338;39.544;2.596;2022-12-29T11:36:57;26.10;53.30
74809;DHT22;63338;39.544;2.596;2022-12-29T11:42:20;26.10;53.50
74809;DHT22;63338;39.544;2.596;2022-12-29T11:44:48;25.70;52.80
74809;DHT22;63338;39.544;2.596;2022-12-29T11:47:29;25.30;53.20
74809;DHT22;63338;39.544;2.596;2022-12-29T11:50:02;24.80;53.90
74809;DHT22;63338;39.544;2.596;2022-12-29T11:52:32;24.40;54.70
74809;DHT22;63338;39.544;2.596;2022-12-29T11:55:03;24.30;54.30
74809;DHT22;63338;39.544;2.596;2022-12-29T11:57:33;24.20;55.10
74809;DHT22;63338;39.544;2.596;2022-12-29T12:00:03;24.20;54.80
74809;DHT22;63338;39.544;2.596;2022-12-29T12:05:28;24.30;54.40
74809;DHT22;63338;39.544;2.596;2022-12-29T12:08:31;24.10;54.30
74809;DHT22;63338;39.544;2.596;2022-12-29T12:11:04;23.80;54.30
74809;DHT22;63338;39.544;2.596;2022-12-29T12:13:52;23.90;54.00
74809;DHT22;63338;39.544;2.596;2022-12-29T12:16:23;23.80;53.80
74809;DHT22;63338;39.544;2.596;2022-12-29T12:19:01;23.60;54.50
74809;DHT22;63338;39.544;2.596;2022-12-29T12:21:39;23.50;55.40
74809;DHT22;63338;39.544;2.596;2022-12-29T12:24:21;23.50;55.20
74809;DHT22;63338;39.544;2.596;2022-12-29T12:29:25;23.60;55.40
74809;DHT22;63338;39.544;2.596;2022-12-29T12:32:17;23.70;54.90
74809;DHT22;63338;39.544;2.596;2022-12-29T12:34:47;23.80;55.00
74809;DHT22;63338;39.544;2.596;2022-12-29T12:40:21;23.40;55.20
74809;DHT22;63338;39.544;2.596;2022-12-29T12:48:35;22.30;56.60
74809;DHT22;63338;39.544;2.596;2022-12-29T12:54:18;21.90;56.40
74809;DHT22;63338;39.544;2.596;2022-12-29T12:59:49;21.50;57.20
74809;DHT22;63338;39.544;2.596;2022-12-29T13:08:19;21.70;57.00
74809;DHT22;63338;39.544;2.596;2022-12-29T13:16:10;22.50;55.70
74809;DHT22;63338;39.544;2.596;2022-12-29T13:22:08;22.70;55.40
74809;DHT22;63338;39.544;2.596;2022-12-29T13:27:35;22.80;55.80
74809;DHT22;63338;39.544;2.596;2022-12-29T13:32:44;22.90;56.00
74809;DHT22;63338;39.544;2.596;2022-12-29T13:38:05;23.30;56.40
74809;DHT22;63338;39.544;2.596;2022-12-29T13:40:40;23.50;55.40
74809;DHT22;63338;39.544;2.596;2022-12-29T13:43:07;23.50;55.40
74809;DHT22;63338;39.544;2.596;2022-12-29T13:45:34;23.60;55.20
74809;DHT22;63338;39.544;2.596;2022-12-29T13:48:29;23.50;55.80
74809;DHT22;63338;39.544;2.596;2022-12-29T13:50:57;23.60;55.60
74809;DHT22;63338;39.544;2.596;2022-12-29T13:56:30;23.60;55.90
74809;DHT22;63338;39.544;2.596;2022-12-29T13:59:05;23.80;54.70
74809;DHT22;63338;39.544;2.596;2022-12-29T14:01:47;24.00;54.80
74809;DHT22;63338;39.544;2.596;2022-12-29T14:04:22;24.20;53.30
74809;DHT22;63338;39.544;2.596;2022-12-29T14:07:12;24.00;52.50
74809;DHT22;63338;39.544;2.596;2022-12-29T14:09:50;24.00;52.50
74809;DHT22;63338;39.544;2.596;2022-12-29T14:14:52;24.10;52.00
74809;DHT22;63338;39.544;2.596;2022-12-29T14:17:21;23.80;51.50
74809;DHT22;63338;39.544;2.596;2022-12-29T14:19:52;23.70;51.60
74809;DHT22;63338;39.544;2.596;2022-12-29T14:22:27;23.50;52.10
74809;DHT22;63338;39.544;2.596;2022-12-29T14:24:53;23.30;52.40
74809;DHT22;63338;39.544;2.596;2022-12-29T14:29:47;23.20;53.60
74809;DHT22;63338;39.544;2.596;2022-12-29T14:34:59;22.90;54.60
74809;DHT22;63338;39.544;2.596;2022-12-29T14:37:27;22.70;55.40
74809;DHT22;63338;39.544;2.596;2022-12-29T14:42:32;22.80;55.40
74809;DHT22;63338;39.544;2.596;2022-12-29T14:47:49;22.70;55.50
74809;DHT22;63338;39.544;2.596;2022-12-29T14:50:18;22.30;55.90
74809;DHT22;63338;39.544;2.596;2022-12-29T14:52:57;22.20;55.80
74809;DHT22;63338;39.544;2.596;2022-12-29T14:58:01;21.50;56.80
74809;DHT22;63338;39.544;2.596;2022-12-29T15:00:31;21.20;57.10
74809;DHT22;63338;39.544;2.596;2022-12-29T15:03:12;20.90;59.10
74809;DHT22;63338;39.544;2.596;2022-12-29T15:05:54;20.40;59.50
74809;DHT22;63338;39.544;2.596;2022-12-29T15:08:24;20.20;60.50
74809;DHT22;63338;39.544;2.596;2022-12-29T15:11:05;20.10;60.50
74809;DHT22;63338;39.544;2.596;2022-12-29T15:13:37;20.00;61.30
74809;DHT22;63338;39.544;2.596;2022-12-29T15:16:05;19.80;61.40
74809;DHT22;63338;39.544;2.596;2022-12-29T15:18:32;19.80;62.10
74809;DHT22;63338;39.544;2.596;2022-12-29T15:21:05;19.60;62.20
74809;DHT22;63338;39.544;2.596;2022-12-29T15:23:34;19.60;62.60
74809;DHT22;63338;39.544;2.596;2022-12-29T15:26:05;19.30;62.80
74809;DHT22;63338;39.544;2.596;2022-12-29T15:28:48;19.30;63.10
74809;DHT22;63338;39.544;2.596;2022-12-29T15:31:18;19.30;63.50
74809;DHT22;63338;39.544;2.596;2022-12-29T15:33:50;19.20;64.00
74809;DHT22;63338;39.544;2.596;2022-12-29T15:36:24;19.10;64.50
74809;DHT22;63338;39.544;2.596;2022-12-29T15:38:51;19.00;64.80
74809;DHT22;63338;39.544;2.596;2022-12-29T15:46:32;18.80;65.40
74809;DHT22;63338;39.544;2.596;2022-12-29T15:48:58;18.70;65.60
74809;DHT22;63338;39.544;2.596;2022-12-29T15:51:28;18.60;66.00
74809;DHT22;63338;39.544;2.596;2022-12-29T15:53:55;18.60;66.50
74809;DHT22;63338;39.544;2.596;2022-12-29T15:56:22;18.60;66.80
74809;DHT22;63338;39.544;2.596;2022-12-29T15:58:50;18.60;66.80
74809;DHT22;63338;39.544;2.596;2022-12-29T16:01:24;18.50;66.80
74809;DHT22;63338;39.544;2.596;2022-12-29T16:03:53;18.50;67.00
74809;DHT22;63338;39.544;2.596;2022-12-29T16:09:05;18.40;67.30
74809;DHT22;63338;39.544;2.596;2022-12-29T16:11:35;18.30;67.40
74809;DHT22;63338;39.544;2.596;2022-12-29T16:14:10;18.20;67.70
74809;DHT22;63338;39.544;2.596;2022-12-29T16:16:41;18.20;67.80
74809;DHT22;63338;39.544;2.596;2022-12-29T16:19:14;18.20;67.90
74809;DHT22;63338;39.544;2.596;2022-12-29T16:21:42;18.10;69.40
74809;DHT22;63338;39.544;2.596;2022-12-29T16:24:16;18.00;69.50
74809;DHT22;63338;39.544;2.596;2022-12-29T16:26:48;18.00;69.60
74809;DHT22;63338;39.544;2.596;2022-12-29T16:29:15;17.90;69.90
74809;DHT22;63338;39.544;2.596;2022-12-29T16:31:58;17.90;69.90
74809;DHT22;63338;39.544;2.596;2022-12-29T16:34:43;17.70;70.30
74809;DHT22;63338;39.544;2.596;2022-12-29T16:37:32;17.80;70.50
74809;DHT22;63338;39.544;2.596;2022-12-29T16:50:33;17.60;71.30
74809;DHT22;63338;39.544;2.596;2022-12-29T16:53:00;17.60;71.60
74809;DHT22;63338;39.544;2.596;2022-12-29T16:55:26;17.50;71.60
74809;DHT22;63338;39.544;2.596;2022-12-29T16:57:54;17.50;71.90
74809;DHT22;63338;39.544;2.596;2022-12-29T17:00:25;17.50;71.90
74809;DHT22;63338;39.544;2.596;2022-12-29T17:03:01;17.50;71.80
74809;DHT22;63338;39.544;2.596;2022-12-29T17:05:28;17.40;71.80
74809;DHT22;63338;39.544;2.596;2022-12-29T17:07:54;17.40;71.80
74809;DHT22;63338;39.544;2.596;2022-12-29T17:10:26;17.40;72.20
74809;DHT22;63338;39.544;2.596;2022-12-29T17:13:12;17.40;72.40
74809;DHT22;63338;39.544;2.596;2022-12-29T17:15:38;17.30;72.50
74809;DHT22;63338;39.544;2.596;2022-12-29T17:18:04;17.30;72.80
74809;DHT22;63338;39.544;2.596;2022-12-29T17:20:31;17.20;73.00
74809;DHT22;63338;39.544;2.596;2022-12-29T17:23:00;17.10;72.40
74809;DHT22;63338;39.544;2.596;2022-12-29T17:25:35;17.10;72.50
74809;DHT22;63338;39.544;2.596;2022-12-29T17:28:21;17.00;73.00
74809;DHT22;63338;39.544;2.596;2022-12-29T17:30:49;17.00;72.50
74809;DHT22;63338;39.544;2.596;2022-12-29T17:33:17;16.90;73.20
74809;DHT22;63338;39.544;2.596;2022-12-29T17:35:44;16.80;72.40
74809;DHT22;63338;39.544;2.596;2022-12-29T17:38:33;16.80;72.80
74809;DHT22;63338;39.544;2.596;2022-12-29T17:41:00;16.70;72.00
74809;DHT22;63338;39.544;2.596;2022-12-29T17:43:26;16.80;72.10
74809;DHT22;63338;39.544;2.596;2022-12-29T17:45:55;16.70;72.00
74809;DHT22;63338;39.544;2.596;2022-12-29T17:48:22;16.70;71.90
74809;DHT22;63338;39.544;2.596;2022-12-29T17:50:50;16.70;71.90
74809;DHT22;63338;39.544;2.596;2022-12-29T17:53:24;16.80;72.30
74809;DHT22;63338;39.544;2.596;2022-12-29T17:55:51;16.80;73.00
74809;DHT22;63338;39.544;2.596;2022-12-29T18:00:46;16.80;74.00
74809;DHT22;63338;39.544;2.596;2022-12-29T18:03:18;16.90;74.50
74809;DHT22;63338;39.544;2.596;2022-12-29T18:05:45;16.90;74.70
74809;DHT22;63338;39.544;2.596;2022-12-29T18:08:11;16.80;75.20
74809;DHT22;63338;39.544;2.596;2022-12-29T18:10:38;16.90;76.30
74809;DHT22;63338;39.544;2.596;2022-12-29T18:13:05;16.90;76.50